Farmington, NM

3:37 AM MDT on May 30, 2015 (GMT -0600)
Four Corners Regional | | Change Station
CLOSE
Current Station
Airport
Location: Farmington,
Elevation: 5502 ft
Nearby Weather Stations

Elev 5502 ft 36.74 °N, 108.23 °W | Updated 44 minutes ago

Clear
Clear
49 °F
Feels Like 49 °F
N
4
Wind Variable Wind from NE

Today
High -- | Low -- °F
--% Chance of Precip.
Yesterday
High -- | Low -- °F
Precip. -- in
5:56 AM 8:24 PM
Waxing Gibbous, 89% visible
Pressure 30.08 in
Visibility 10.0 miles
Clouds Clear
Dew Point 27 °F
Humidity 43%
Rainfall 0.00 in
Snow Depth Not available.
UV 0 out of 12
Pollen 6.00 out of 12
Air Quality Not available.
Flu Activity Sporadic
METAR KFMN 300853Z AUTO 04003KT 10SM CLR 09/M03 A3020 RMK AO2 SLP184 T00941028 53006

More Conditions Fewer Conditions

Pressure 30.08 in
Visibility 10.0 miles
Clouds Clear
Dew Point 27 °F
Humidity 43%
Rainfall 0.00 in
Snow Depth Not available.
UV 0 out of 12
Pollen 6.00 out of 12
Air Quality Not available.
Flu Activity Sporadic
METAR KFMN 300853Z AUTO 04003KT 10SM CLR 09/M03 A3020 RMK AO2 SLP184 T00941028 53006

More Conditions Fewer Conditions

10-Day Weather Forecast

Almanac

Astronomy

May. 30, 2015 Rise Set
Actual Time
Civil Twilight
Nautical Twilight
Astronomical Twilight
Moon
Length of Visible Light
Length of Day
Tomorrow will be .
, % of the Moon is Illuminated

Today's Extremes

State Highs State Lows

Community

WunderPhotos

Upload Photos

1,825,476 photos uploaded!

WunderBlogs® & News

Nearby

Air Quality

  Air Quality AQ Index Pollutant
Not available.

Snow Depth

Station Depth Elevation

Earthquake Activity

City Distance Mag. Time & Date
Minimum magnitude displayed is 2.5.

Coastal Water Temperatures

Place Temperature

Stations

Nearby Weather Stations

Station Location Temp. Windchill Dew Point Humidity Wind Precip. Elev Updated Type